KLNR/LNR METAR and TAF weather

Enter ICAO airport designator
Station Type Date Time Source
KLNR METAR 2022/01/19 18:56 UTC NOAA

KLNR 191856Z AUTO 29013KT 10SM CLR M11/M17 A3021 RMK AO2 SLP238 T11061172


Station Type Date Time Source
KLNR Decoded METAR 2022/01/19 18:56 UTC NOAA

LONE ROCK TRI-COUNTY REG, WI, United States (KLNR) 43-13N 090-11W 217M
Jan 19, 2022 - 01:56 PM EST / 2022.01.19 1856 UTC
Wind: from the WNW (290 degrees) at 15 MPH (13 KT):0
Visibility: 10 mile(s):0
Sky conditions: clear
Temperature: 12.9 F (-10.6 C)
Windchill: -2 F (-19 C):1
Dew Point: 1.0 F (-17.2 C)
Relative Humidity: 58%
Pressure (altimeter): 30.21 in. Hg (1023 hPa)
ob: KLNR 191856Z AUTO 29013KT 10SM CLR M11/M17 A3021 RMK AO2 SLP238 T11061172
cycle: 19

Station Type Date Time Source
KLNR TAF UTC NOAA

Error!

Example: see airport list